Terminal Aerodrome Forecast
Issued by NWS

Home | Current Version | Previous Version | Text Only | Print | Product List | Glossary On
Versions: 1 2 3 4 5 6 7 8 9 10 11 12 13 14 15 16 17 18 19
000
FTUS43 KDVN 181730
TAFBRL
TAF
KBRL 181730Z 1818/1918 33018G28KT P6SM BKN015
      TEMPO 1818/1820 6SM -RA BKN008 OVC012
     FM182200 32020G30KT P6SM SCT200
     FM190300 31014KT P6SM SCT020=

USA.gov is the U.S. government's official web portal to all federal, state and local government web resources and services.